Weather at Palmahim South Airstrip

Public forecast

Using degrees Celsius for public forecast. Weather courtesy of forecast.io.

Closest aviation weather report (METAR) to Palmahim South Airstrip

Closest report is Ben Gurion International Airport, 13.1 nm (24.3 km) NE. Retrieved 2021/10/22 07:20 UTC (1 hour ago):

LLBG 220720Z 35008KT 320V020 9999 FEW035 25/15 Q1019 NOSIG

Closest aviation forecast (TAF) to Palmahim South Airstrip

Closest forecast is Ben Gurion International Airport, 13.1 nm (24.3 km) NE. Retrieved 2021/10/22 06:12 UTC (2 hours ago):

TAF LLBG 220510Z 2206/2306 VRB03KT CAVOK BECMG 2207/2209 33012KT 9999 FEW035 BECMG 2217/2219 36005KT SCT030 BECMG 2223/2301 VRB03KT TX28/2210Z TN19/2303Z